createdAt,value
2019-04-20T00:01:22.836Z,145.50
2019-04-20T00:03:48.189Z,154.45
2019-04-20T00:06:17.553Z,153.18
2019-04-20T00:08:47.497Z,144.70
2019-04-20T00:11:25.482Z,148.77
2019-04-20T00:13:54.935Z,142.15
2019-04-20T00:16:16.920Z,152.53
2019-04-20T00:18:50.351Z,143.90
2019-04-20T00:21:35.618Z,165.17
2019-04-20T00:24:16.478Z,151.96
2019-04-20T00:27:17.811Z,157.47
2019-04-20T00:29:30.972Z,155.18
2019-04-20T00:31:58.306Z,160.60
2019-04-20T00:34:21.451Z,155.57
2019-04-20T00:36:45.346Z,138.85
2019-04-20T00:39:16.534Z,162.80
2019-04-20T00:41:51.491Z,163.37
2019-04-20T00:44:21.956Z,165.17
2019-04-20T00:46:55.576Z,145.65
2019-04-20T00:49:33.321Z,166.23
2019-04-20T00:52:15.252Z,153.83
2019-04-20T00:54:17.969Z,156.90
2019-04-20T00:56:47.823Z,154.45
2019-04-20T00:59:29.033Z,151.47
2019-04-20T01:02:03.922Z,171.03
2019-04-20T01:04:38.820Z,167.40
2019-04-20T01:07:17.689Z,166.12
2019-04-20T01:09:52.016Z,176.90
2019-04-20T01:12:26.048Z,167.75
2019-04-20T01:14:55.758Z,158.15
2019-04-20T01:17:21.778Z,153.10
2019-04-20T01:19:52.787Z,150.03
2019-04-20T01:22:25.122Z,155.53
2019-04-20T01:24:52.970Z,159.35
2019-04-20T01:27:32.154Z,166.47
2019-04-20T01:30:03.411Z,147.10
2019-04-20T01:32:32.003Z,156.47
2019-04-20T01:35:04.761Z,155.75
2019-04-20T01:37:36.521Z,159.37
2019-04-20T01:39:58.592Z,176.12
2019-04-20T01:42:26.054Z,170.40
2019-04-20T01:44:56.696Z,157.20
2019-04-20T01:47:35.715Z,158.40
2019-04-20T01:50:03.804Z,163.50
2019-04-20T01:52:34.976Z,173.70
2019-04-20T01:55:24.456Z,163.07
2019-04-20T01:58:02.896Z,169.60
2019-04-20T02:00:23.263Z,154.43
2019-04-20T02:02:58.383Z,165.17
2019-04-20T02:05:28.044Z,159.67
2019-04-20T02:07:55.439Z,159.57
2019-04-20T02:10:33.347Z,167.60
2019-04-20T02:12:59.414Z,167.47
2019-04-20T02:15:32.995Z,173.37
2019-04-20T02:18:10.285Z,179.78
2019-04-20T02:20:44.596Z,165.57
2019-04-20T02:23:09.626Z,167.25
2019-04-20T02:25:25.175Z,163.25
2019-04-20T02:28:07.598Z,178.00
2019-04-20T02:31:06.331Z,170.63
2019-04-20T02:36:33.611Z,178.53
2019-04-20T02:39:05.159Z,152.23
2019-04-20T02:41:17.812Z,165.75
2019-04-20T02:44:03.522Z,164.67
2019-04-20T02:46:20.385Z,164.10
2019-04-20T02:48:52.530Z,159.77
2019-04-20T02:51:13.442Z,171.02
2019-04-20T02:56:35.509Z,160.05
2019-04-20T02:59:02.475Z,149.97
2019-04-20T03:01:21.830Z,156.90
2019-04-20T03:03:39.121Z,157.20
2019-04-20T03:06:17.219Z,153.80
2019-04-20T03:08:56.370Z,154.27
2019-04-20T03:11:29.536Z,161.23
2019-04-20T03:13:54.567Z,156.15
2019-04-20T03:16:25.594Z,149.93
2019-04-20T03:18:57.444Z,143.52
2019-04-20T03:21:32.793Z,156.30
2019-04-20T03:24:06.778Z,144.60
2019-04-20T03:26:48.073Z,144.32
2019-04-20T03:29:18.814Z,148.13
2019-04-20T03:35:01.059Z,144.13
2019-04-20T03:37:06.881Z,139.12
2019-04-20T03:39:29.840Z,156.60
2019-04-20T03:41:44.412Z,159.35
2019-04-20T03:44:15.373Z,159.87
2019-04-20T03:46:47.864Z,158.32
2019-04-20T03:49:39.699Z,155.87
2019-04-20T03:52:02.764Z,160.97
2019-04-20T03:54:28.626Z,140.82
2019-04-20T03:57:18.385Z,149.93
2019-04-20T03:59:48.730Z,150.55
2019-04-20T04:05:02.793Z,159.18
2019-04-20T04:07:21.958Z,155.00
2019-04-20T04:10:03.323Z,160.25
2019-04-20T04:12:37.124Z,157.57
2019-04-20T04:15:02.309Z,166.57
2019-04-20T04:17:36.669Z,173.17
2019-04-20T04:20:08.781Z,159.12
2019-04-20T04:22:50.306Z,162.80
2019-04-20T04:25:18.422Z,152.63
2019-04-20T04:27:55.099Z,194.85
2019-04-20T04:30:18.312Z,178.97
2019-04-20T04:33:20.119Z,176.37
2019-04-20T04:35:20.168Z,174.40
2019-04-20T04:37:57.015Z,181.10
2019-04-20T04:40:39.895Z,188.43
2019-04-20T04:42:58.439Z,198.90
2019-04-20T04:45:14.158Z,186.97
2019-04-20T04:47:40.868Z,186.07
2019-04-20T04:50:16.416Z,185.75
2019-04-20T04:52:53.657Z,190.13
2019-04-20T04:55:23.764Z,180.37
2019-04-20T04:57:41.682Z,188.50
2019-04-20T05:00:20.047Z,188.57
2019-04-20T05:02:51.715Z,189.55
2019-04-20T05:05:36.022Z,183.82
2019-04-20T05:07:59.443Z,183.42
2019-04-20T05:10:20.807Z,184.82
2019-04-20T05:12:50.170Z,173.10
2019-04-20T05:15:32.550Z,175.65
2019-04-20T05:18:11.856Z,182.90
2019-04-20T05:20:46.958Z,187.53
2019-04-20T05:23:08.563Z,175.97
2019-04-20T05:25:58.026Z,187.30
2019-04-20T05:28:39.244Z,189.98
2019-04-20T05:31:00.928Z,165.73
2019-04-20T05:33:42.313Z,159.13
2019-04-20T05:36:17.595Z,150.00
2019-04-20T05:39:13.089Z,163.57
2019-04-20T05:41:20.149Z,153.32
2019-04-20T05:43:52.243Z,134.05
2019-04-20T05:46:26.684Z,132.35
2019-04-20T05:49:00.437Z,113.30
2019-04-20T05:51:36.438Z,112.92
2019-04-20T05:54:04.441Z,114.20
2019-04-20T05:56:38.033Z,100.83
2019-04-20T05:58:59.848Z,108.42
2019-04-20T06:01:31.831Z,102.17
2019-04-20T06:03:59.375Z,103.30
2019-04-20T06:06:34.556Z,88.13
2019-04-20T06:11:34.334Z,87.47
2019-04-20T06:13:59.014Z,89.85
2019-04-20T06:16:52.647Z,92.10
2019-04-20T06:19:24.355Z,87.75
2019-04-20T06:21:54.288Z,85.33
2019-04-20T06:24:18.379Z,84.43
2019-04-20T06:26:55.120Z,81.22
2019-04-20T06:29:16.761Z,79.00
2019-04-20T06:31:53.356Z,80.28
2019-04-20T06:34:30.236Z,74.12
2019-04-20T06:36:55.832Z,78.28
2019-04-20T06:39:31.170Z,78.27
2019-04-20T06:42:13.765Z,79.30
2019-04-20T06:44:31.734Z,67.37
2019-04-20T06:47:15.736Z,77.85
2019-04-20T06:49:35.344Z,77.67
2019-04-20T06:52:10.130Z,76.10
2019-04-20T06:54:36.102Z,80.83
2019-04-20T06:57:06.563Z,77.20
2019-04-20T06:59:43.132Z,74.90
2019-04-20T07:07:09.712Z,79.72
2019-04-20T07:09:47.437Z,78.50
2019-04-20T07:12:06.428Z,76.60
2019-04-20T07:14:34.562Z,78.30
2019-04-20T07:17:20.301Z,74.35
2019-04-20T07:19:45.344Z,77.73
2019-04-20T07:22:32.116Z,80.53
2019-04-20T07:25:05.414Z,79.40
2019-04-20T07:27:27.830Z,79.75
2019-04-20T07:29:59.019Z,78.85
2019-04-20T07:32:32.619Z,73.84
2019-04-20T07:35:08.474Z,79.65
2019-04-20T07:38:06.996Z,76.17
2019-04-20T07:40:17.617Z,73.87
2019-04-20T07:42:49.493Z,78.73
2019-04-20T07:45:21.863Z,81.57
2019-04-20T07:50:13.303Z,82.30
2019-04-20T07:52:40.825Z,83.52
2019-04-20T07:55:33.922Z,83.53
2019-04-20T07:57:42.840Z,80.50
2019-04-20T08:00:27.546Z,79.25
2019-04-20T08:03:03.048Z,79.87
2019-04-20T08:05:31.003Z,84.13
2019-04-20T08:08:02.733Z,90.38
2019-04-20T08:10:35.287Z,79.73
2019-04-20T08:13:19.374Z,75.87
2019-04-20T08:15:57.037Z,89.28
2019-04-20T08:18:06.511Z,76.87
2019-04-20T08:20:43.916Z,81.80
2019-04-20T08:23:12.381Z,88.20
2019-04-20T08:25:31.647Z,79.87
2019-04-20T08:27:57.075Z,82.60
2019-04-20T08:30:41.382Z,74.97
2019-04-20T08:33:28.008Z,83.60
2019-04-20T08:36:09.172Z,76.40
2019-04-20T08:41:00.168Z,75.60
2019-04-20T08:43:43.782Z,75.77
2019-04-20T08:46:05.290Z,82.80
2019-04-20T08:48:34.423Z,77.10
2019-04-20T08:51:03.512Z,84.15
2019-04-20T08:53:36.859Z,79.83
2019-04-20T08:56:02.244Z,77.90
2019-04-20T08:58:20.295Z,75.37
2019-04-20T09:00:56.565Z,68.47
2019-04-20T09:03:25.359Z,78.30
2019-04-20T09:06:01.022Z,77.65
2019-04-20T09:08:26.313Z,69.60
2019-04-20T09:11:10.858Z,71.80
2019-04-20T09:13:33.108Z,76.10
2019-04-20T09:15:53.565Z,73.97
2019-04-20T09:18:43.287Z,68.55
2019-04-20T09:21:13.952Z,73.25
2019-04-20T09:23:57.885Z,71.42
2019-04-20T09:26:56.123Z,69.93
2019-04-20T09:29:06.948Z,76.80
2019-04-20T09:31:44.810Z,71.17
2019-04-20T09:34:26.317Z,78.30
2019-04-20T09:37:14.161Z,76.47
2019-04-20T09:39:52.938Z,75.47
2019-04-20T09:42:17.630Z,73.93
2019-04-20T09:44:59.046Z,73.92
2019-04-20T09:47:36.890Z,66.73
2019-04-20T09:50:22.743Z,68.50
2019-04-20T09:52:59.179Z,66.42
2019-04-20T09:55:26.790Z,69.30
2019-04-20T09:58:04.890Z,67.12
2019-04-20T10:00:42.146Z,71.10
2019-04-20T10:03:02.298Z,69.47
2019-04-20T10:05:37.879Z,68.85
2019-04-20T10:08:11.798Z,68.62
2019-04-20T10:10:45.603Z,64.77
2019-04-20T10:13:17.456Z,67.27
2019-04-20T10:15:55.690Z,68.50
2019-04-20T10:18:34.177Z,62.83
2019-04-20T10:21:11.689Z,71.05
2019-04-20T10:23:42.839Z,60.28
2019-04-20T10:26:14.291Z,55.75
2019-04-20T10:28:45.534Z,70.60
2019-04-20T10:31:17.879Z,63.30
2019-04-20T10:33:49.325Z,57.88
2019-04-20T10:36:41.757Z,63.15
2019-04-20T10:39:14.356Z,59.00
2019-04-20T10:41:52.613Z,59.63
2019-04-20T10:44:20.933Z,55.20
2019-04-20T10:46:53.363Z,59.57
2019-04-20T10:49:22.917Z,58.23
2019-04-20T10:51:55.774Z,59.93
2019-04-20T10:54:26.664Z,56.40
2019-04-20T10:56:57.790Z,64.90
2019-04-20T10:59:31.748Z,59.13
2019-04-20T11:02:05.660Z,57.93
2019-04-20T11:04:38.724Z,50.08
2019-04-20T11:07:12.502Z,54.50
2019-04-20T11:09:44.822Z,52.40
2019-04-20T11:12:18.048Z,47.97
2019-04-20T11:14:48.062Z,53.15
2019-04-20T11:17:20.417Z,52.17
2019-04-20T11:19:50.055Z,53.02
2019-04-20T11:22:22.252Z,45.50
2019-04-20T11:24:52.649Z,57.15
2019-04-20T11:27:23.071Z,49.53
2019-04-20T11:29:54.001Z,52.85
2019-04-20T11:32:26.143Z,49.20
2019-04-20T11:35:02.241Z,54.58
2019-04-20T11:37:30.776Z,49.17
2019-04-20T11:40:03.226Z,43.58
2019-04-20T11:42:33.802Z,55.57
2019-04-20T11:45:04.643Z,42.67
2019-04-20T11:47:33.697Z,45.30
2019-04-20T11:50:03.779Z,50.12
2019-04-20T11:52:39.918Z,46.65
2019-04-20T11:55:08.919Z,47.63
2019-04-20T11:57:39.552Z,44.70
2019-04-20T12:00:11.044Z,45.30
2019-04-20T12:02:46.156Z,48.57
2019-04-20T12:05:27.318Z,47.43
2019-04-20T12:07:53.182Z,43.38
2019-04-20T12:10:24.176Z,41.37
2019-04-20T12:12:55.643Z,41.08
2019-04-20T12:15:24.902Z,41.70
2019-04-20T12:17:57.826Z,41.77
2019-04-20T12:20:29.334Z,47.63
2019-04-20T12:23:04.253Z,49.48
2019-04-20T12:25:36.212Z,51.42
2019-04-20T12:28:05.338Z,56.57
2019-04-20T12:30:39.613Z,50.67
2019-04-20T12:33:11.520Z,52.03
2019-04-20T12:35:42.498Z,49.50
2019-04-20T12:38:14.879Z,50.98
2019-04-20T12:40:46.274Z,51.73
2019-04-20T12:43:17.347Z,55.67
2019-04-20T12:45:48.039Z,50.15
2019-04-20T12:48:17.611Z,50.30
2019-04-20T12:50:53.367Z,49.50
2019-04-20T12:53:24.545Z,45.33
2019-04-20T12:55:54.795Z,54.05
2019-04-20T12:58:24.051Z,53.10
2019-04-20T13:00:54.346Z,50.83
2019-04-20T13:03:25.948Z,59.63
2019-04-20T13:05:56.114Z,50.80
2019-04-20T13:08:30.357Z,59.33
2019-04-20T13:11:13.272Z,52.70
2019-04-20T13:13:58.607Z,55.17
2019-04-20T13:16:30.341Z,55.17
2019-04-20T13:19:01.545Z,59.88
2019-04-20T13:21:32.912Z,54.42
2019-04-20T13:24:05.170Z,56.83
2019-04-20T13:26:36.966Z,57.33
2019-04-20T13:29:10.962Z,60.28
2019-04-20T13:31:48.102Z,58.83
2019-04-20T13:34:20.151Z,56.25
2019-04-20T13:36:50.936Z,57.08
2019-04-20T13:39:20.209Z,53.27
2019-04-20T13:41:59.816Z,51.35
2019-04-20T13:44:21.926Z,48.27
2019-04-20T13:46:51.154Z,49.90
2019-04-20T13:49:20.987Z,59.03
2019-04-20T13:51:50.830Z,51.37
2019-04-20T13:54:24.541Z,60.90
2019-04-20T13:56:51.974Z,53.52
2019-04-20T13:59:25.898Z,48.83
2019-04-20T14:01:57.058Z,54.05
2019-04-20T14:04:28.510Z,48.75
2019-04-20T14:06:59.480Z,54.58
2019-04-20T14:09:29.618Z,56.20
2019-04-20T14:12:11.851Z,52.87
2019-04-20T14:14:32.840Z,58.20
2019-04-20T14:17:03.283Z,49.65
2019-04-20T14:19:32.126Z,47.60
2019-04-20T14:22:02.112Z,52.17
2019-04-20T14:24:33.204Z,55.57
2019-04-20T14:27:03.343Z,51.35
2019-04-20T14:29:32.908Z,52.60
2019-04-20T14:32:04.718Z,53.92
2019-04-20T14:34:33.328Z,53.25
2019-04-20T14:37:02.947Z,52.90
2019-04-20T14:39:32.325Z,54.25
2019-04-20T14:42:02.454Z,54.23
2019-04-20T14:44:32.067Z,54.93
2019-04-20T14:47:03.952Z,50.52
2019-04-20T14:49:32.678Z,56.08
2019-04-20T14:52:08.070Z,49.33
2019-04-20T14:54:37.262Z,54.10
2019-04-20T14:57:07.589Z,65.07
2019-04-20T14:59:37.996Z,52.15
2019-04-20T15:02:08.685Z,48.45
2019-04-20T15:04:39.064Z,51.57
2019-04-20T15:07:10.776Z,55.83
2019-04-20T15:09:42.546Z,50.48
2019-04-20T15:12:13.060Z,55.10
2019-04-20T15:14:42.751Z,56.50
2019-04-20T15:17:13.522Z,52.67
2019-04-20T15:19:45.486Z,48.75
2019-04-20T15:22:35.797Z,49.40
2019-04-20T15:25:09.573Z,60.92
2019-04-20T15:27:42.510Z,53.95
2019-04-20T15:30:09.203Z,53.60
2019-04-20T15:32:38.957Z,49.13
2019-04-20T15:35:11.099Z,55.73
2019-04-20T15:37:45.102Z,54.27
2019-04-20T15:40:21.832Z,55.33
2019-04-20T15:42:59.063Z,60.93
2019-04-20T15:45:25.260Z,55.13
2019-04-20T15:47:54.599Z,51.43
2019-04-20T15:50:23.383Z,49.27
2019-04-20T15:52:55.293Z,54.90
2019-04-20T15:55:30.074Z,49.70
2019-04-20T15:57:55.561Z,58.13
2019-04-20T16:00:26.678Z,48.23
2019-04-20T16:03:01.291Z,53.17
2019-04-20T16:05:51.411Z,50.05
2019-04-20T16:08:32.245Z,47.47
2019-04-20T16:11:04.599Z,50.33
2019-04-20T16:13:40.249Z,48.20
2019-04-20T16:16:07.882Z,53.90
2019-04-20T16:18:37.062Z,51.33
2019-04-20T16:21:11.642Z,51.40
2019-04-20T16:23:48.534Z,55.12
2019-04-20T16:26:25.869Z,52.93
2019-04-20T16:28:57.593Z,50.88
2019-04-20T16:31:26.909Z,54.90
2019-04-20T16:33:58.530Z,51.93
2019-04-20T16:36:26.653Z,51.23
2019-04-20T16:38:57.383Z,47.48
2019-04-20T16:41:26.736Z,51.48
2019-04-20T16:43:55.534Z,48.27
2019-04-20T16:46:25.830Z,54.17
2019-04-20T16:48:57.028Z,48.87
2019-04-20T16:51:27.323Z,53.42
2019-04-20T16:53:56.351Z,54.53
2019-04-20T16:56:24.900Z,45.23
2019-04-20T16:59:00.495Z,47.85
2019-04-20T17:01:32.308Z,48.35
2019-04-20T17:04:10.844Z,49.08
2019-04-20T17:06:40.103Z,47.17
2019-04-20T17:09:12.169Z,50.33
2019-04-20T17:11:41.558Z,47.33
2019-04-20T17:14:10.527Z,45.50
2019-04-20T17:16:40.010Z,48.13
2019-04-20T17:19:20.183Z,54.15
2019-04-20T17:21:50.725Z,53.90
2019-04-20T17:24:20.055Z,57.33
2019-04-20T17:27:08.792Z,51.10
2019-04-20T17:29:54.812Z,44.95
2019-04-20T17:32:25.462Z,51.08
2019-04-20T17:35:12.714Z,50.05
2019-04-20T17:37:24.575Z,56.73
2019-04-20T17:40:12.907Z,50.48
2019-04-20T17:42:41.572Z,44.07
2019-04-20T17:45:04.091Z,49.25
2019-04-20T17:47:43.120Z,44.03
2019-04-20T17:50:16.672Z,51.73
2019-04-20T17:52:46.155Z,56.07
2019-04-20T17:55:17.588Z,48.45
2019-04-20T17:57:37.470Z,47.95
2019-04-20T18:00:13.797Z,42.35
2019-04-20T18:02:58.930Z,45.50
2019-04-20T18:05:33.944Z,48.50
2019-04-20T18:08:06.968Z,43.60
2019-04-20T18:10:30.294Z,45.98
2019-04-20T18:12:51.931Z,45.35
2019-04-20T18:15:36.019Z,42.60
2019-04-20T18:18:04.899Z,42.03
2019-04-20T18:20:20.918Z,37.83
2019-04-20T18:22:55.232Z,39.97
2019-04-20T18:25:53.435Z,43.27
2019-04-20T18:28:09.557Z,41.37
2019-04-20T18:30:43.632Z,44.57
2019-04-20T18:33:07.371Z,43.04
2019-04-20T18:35:41.280Z,39.58
2019-04-20T18:38:12.623Z,44.60
2019-04-20T18:40:49.309Z,43.30
2019-04-20T18:43:14.997Z,47.23
2019-04-20T18:45:58.294Z,46.40
2019-04-20T18:48:33.955Z,52.80
2019-04-20T18:50:42.203Z,49.33
2019-04-20T18:53:14.660Z,49.58
2019-04-20T18:55:47.031Z,40.40
2019-04-20T18:58:11.076Z,44.17
2019-04-20T19:00:44.471Z,44.63
2019-04-20T19:03:18.286Z,46.93
2019-04-20T19:05:42.025Z,46.20
2019-04-20T19:08:13.780Z,46.05
2019-04-20T19:10:43.503Z,43.87
2019-04-20T19:13:22.351Z,42.30
2019-04-20T19:16:23.245Z,43.90
2019-04-20T19:18:58.163Z,42.17
2019-04-20T19:21:15.188Z,42.03
2019-04-20T19:23:53.476Z,34.13
2019-04-20T19:26:18.165Z,35.70
2019-04-20T19:28:50.553Z,35.38
2019-04-20T19:31:28.940Z,39.47
2019-04-20T19:34:07.212Z,35.87
2019-04-20T19:36:28.787Z,37.10
2019-04-20T19:39:01.823Z,34.63
2019-04-20T19:41:31.954Z,36.53
2019-04-20T19:44:05.284Z,41.77
2019-04-20T19:46:56.179Z,38.73
2019-04-20T19:48:59.560Z,37.30
2019-04-20T19:51:41.150Z,41.88
2019-04-20T19:54:13.220Z,43.42
2019-04-20T19:56:42.634Z,48.30
2019-04-20T19:59:08.957Z,42.90
2019-04-20T20:01:27.600Z,37.58
2019-04-20T20:04:02.487Z,42.58
2019-04-20T20:06:37.782Z,38.28
2019-04-20T20:09:04.214Z,43.17
2019-04-20T20:11:35.349Z,42.93
2019-04-20T20:14:04.318Z,46.35
2019-04-20T20:17:01.542Z,45.70
2019-04-20T20:19:29.565Z,51.60
2019-04-20T20:21:59.055Z,48.13
2019-04-20T20:24:19.200Z,50.73
2019-04-20T20:26:53.507Z,45.73
2019-04-20T20:29:25.084Z,48.30
2019-04-20T20:32:07.248Z,39.05
2019-04-20T20:34:29.087Z,40.23
2019-04-20T20:37:00.029Z,46.10
2019-04-20T20:39:29.049Z,44.33
2019-04-20T20:42:20.432Z,48.20
2019-04-20T20:44:49.826Z,43.85
2019-04-20T20:47:31.670Z,43.23
2019-04-20T20:50:06.993Z,47.73
2019-04-20T20:52:27.691Z,43.50
2019-04-20T20:54:52.742Z,45.03
2019-04-20T20:57:18.497Z,41.60
2019-04-20T20:59:51.390Z,39.90
2019-04-20T21:02:19.747Z,45.50
2019-04-20T21:04:43.657Z,45.10
2019-04-20T21:07:12.859Z,44.13
2019-04-20T21:09:41.927Z,47.07
2019-04-20T21:12:15.949Z,47.40
2019-04-20T21:14:44.123Z,45.17
2019-04-20T21:17:17.915Z,45.80
2019-04-20T21:19:58.023Z,42.40
2019-04-20T21:22:22.706Z,47.33
2019-04-20T21:24:48.402Z,40.25
2019-04-20T21:27:19.917Z,40.33
2019-04-20T21:29:51.532Z,50.30
2019-04-20T21:32:19.803Z,45.03
2019-04-20T21:34:55.665Z,41.25
2019-04-20T21:37:23.056Z,48.13
2019-04-20T21:39:57.427Z,36.77
2019-04-20T21:42:25.217Z,47.08
2019-04-20T21:45:04.013Z,33.67
2019-04-20T21:47:30.761Z,37.37
2019-04-20T21:50:05.770Z,34.17
2019-04-20T21:52:32.256Z,36.40
2019-04-20T21:54:56.208Z,39.03
2019-04-20T21:57:26.217Z,42.85
2019-04-20T22:00:08.494Z,43.30
2019-04-20T22:02:32.771Z,41.55
2019-04-20T22:05:01.256Z,40.98
2019-04-20T22:07:32.351Z,43.80
2019-04-20T22:10:02.421Z,45.85
2019-04-20T22:12:39.763Z,44.67
2019-04-20T22:15:10.128Z,45.63
2019-04-20T22:17:35.998Z,36.53
2019-04-20T22:20:19.162Z,39.70
2019-04-20T22:22:52.013Z,40.30
2019-04-20T22:25:28.350Z,42.08
2019-04-20T22:27:40.526Z,41.90
2019-04-20T22:30:12.173Z,39.63
2019-04-20T22:32:44.183Z,40.30
2019-04-20T22:35:15.396Z,37.20
2019-04-20T22:38:08.337Z,46.28
2019-04-20T22:40:33.336Z,41.42
2019-04-20T22:43:02.106Z,43.85
2019-04-20T22:45:33.984Z,43.05
2019-04-20T22:48:06.741Z,44.30
2019-04-20T22:50:46.151Z,45.80
2019-04-20T22:53:17.983Z,42.67
2019-04-20T22:55:55.137Z,41.63
2019-04-20T22:58:22.462Z,44.30
2019-04-20T23:00:43.423Z,42.10
2019-04-20T23:03:07.186Z,40.76
2019-04-20T23:05:38.500Z,41.75
2019-04-20T23:08:08.646Z,45.27
2019-04-20T23:10:40.878Z,43.00
2019-04-20T23:13:09.530Z,43.77
2019-04-20T23:15:43.370Z,44.30
2019-04-20T23:18:10.400Z,50.43
2019-04-20T23:20:41.132Z,40.43
2019-04-20T23:23:15.845Z,46.57
2019-04-20T23:25:41.059Z,46.48
2019-04-20T23:28:13.952Z,44.93
2019-04-20T23:30:42.269Z,48.75
2019-04-20T23:33:11.805Z,48.65
2019-04-20T23:35:43.724Z,48.92
2019-04-20T23:38:16.424Z,51.30
2019-04-20T23:40:41.741Z,48.30
2019-04-20T23:43:18.878Z,49.70
2019-04-20T23:46:01.143Z,45.33
2019-04-20T23:51:40.665Z,48.87
2019-04-20T23:54:02.961Z,50.38
2019-04-20T23:56:24.196Z,53.07
2019-04-20T23:58:56.732Z,51.43
